sensor_id;sensor_type;location;lat;lon;timestamp;temperature;humidity
46117;DHT22;32591;48.102;11.772;2023-04-30T00:00:27;11.30;99.90
46117;DHT22;32591;48.102;11.772;2023-04-30T00:02:54;11.40;99.90
46117;DHT22;32591;48.102;11.772;2023-04-30T00:05:21;11.30;99.90
46117;DHT22;32591;48.102;11.772;2023-04-30T00:07:48;11.30;99.90
46117;DHT22;32591;48.102;11.772;2023-04-30T00:10:15;11.30;99.90
46117;DHT22;32591;48.102;11.772;2023-04-30T00:12:42;11.30;99.90
46117;DHT22;32591;48.102;11.772;2023-04-30T00:15:09;11.40;99.90
46117;DHT22;32591;48.102;11.772;2023-04-30T00:17:39;11.40;99.90
46117;DHT22;32591;48.102;11.772;2023-04-30T00:20:06;11.40;99.90
46117;DHT22;32591;48.102;11.772;2023-04-30T00:22:34;11.50;99.90
46117;DHT22;32591;48.102;11.772;2023-04-30T00:25:01;11.50;99.90
46117;DHT22;32591;48.102;11.772;2023-04-30T00:27:28;11.60;99.90
46117;DHT22;32591;48.102;11.772;2023-04-30T00:29:56;11.50;99.90
46117;DHT22;32591;48.102;11.772;2023-04-30T00:32:23;11.60;99.90
46117;DHT22;32591;48.102;11.772;2023-04-30T00:34:51;11.60;99.90
46117;DHT22;32591;48.102;11.772;2023-04-30T00:37:18;11.70;99.90
46117;DHT22;32591;48.102;11.772;2023-04-30T00:39:45;11.70;99.90
46117;DHT22;32591;48.102;11.772;2023-04-30T00:42:12;11.70;99.90
46117;DHT22;32591;48.102;11.772;2023-04-30T00:44:39;11.60;99.90
46117;DHT22;32591;48.102;11.772;2023-04-30T00:47:06;11.70;99.90
46117;DHT22;32591;48.102;11.772;2023-04-30T00:49:33;11.60;99.90
46117;DHT22;32591;48.102;11.772;2023-04-30T00:52:01;11.60;99.90
46117;DHT22;32591;48.102;11.772;2023-04-30T00:54:28;11.50;99.90
46117;DHT22;32591;48.102;11.772;2023-04-30T00:56:57;11.40;99.90
46117;DHT22;32591;48.102;11.772;2023-04-30T00:59:24;11.40;99.90
46117;DHT22;32591;48.102;11.772;2023-04-30T01:01:51;11.40;99.90
46117;DHT22;32591;48.102;11.772;2023-04-30T01:04:19;11.30;99.90
46117;DHT22;32591;48.102;11.772;2023-04-30T01:06:46;11.30;99.90
46117;DHT22;32591;48.102;11.772;2023-04-30T01:09:14;11.20;99.90
46117;DHT22;32591;48.102;11.772;2023-04-30T01:11:48;11.20;99.90
46117;DHT22;32591;48.102;11.772;2023-04-30T01:14:26;11.20;99.90
46117;DHT22;32591;48.102;11.772;2023-04-30T01:17:01;11.20;99.90
46117;DHT22;32591;48.102;11.772;2023-04-30T01:19:38;11.20;99.90
46117;DHT22;32591;48.102;11.772;2023-04-30T01:22:11;11.10;99.90
46117;DHT22;32591;48.102;11.772;2023-04-30T01:25:09;11.10;99.90
46117;DHT22;32591;48.102;11.772;2023-04-30T01:28:05;11.00;99.90
46117;DHT22;32591;48.102;11.772;2023-04-30T01:30:33;10.90;99.90
46117;DHT22;32591;48.102;11.772;2023-04-30T01:33:00;10.90;99.90
46117;DHT22;32591;48.102;11.772;2023-04-30T01:35:46;11.00;99.90
46117;DHT22;32591;48.102;11.772;2023-04-30T01:38:26;11.00;99.90
46117;DHT22;32591;48.102;11.772;2023-04-30T01:41:05;11.10;99.90
46117;DHT22;32591;48.102;11.772;2023-04-30T01:43:44;11.00;99.90
46117;DHT22;32591;48.102;11.772;2023-04-30T01:46:20;11.00;99.90
46117;DHT22;32591;48.102;11.772;2023-04-30T01:48:57;11.10;99.90
46117;DHT22;32591;48.102;11.772;2023-04-30T01:51:31;11.00;99.90
46117;DHT22;32591;48.102;11.772;2023-04-30T01:54:08;11.00;99.90
46117;DHT22;32591;48.102;11.772;2023-04-30T01:56:46;11.10;99.90
46117;DHT22;32591;48.102;11.772;2023-04-30T01:59:18;11.20;99.90
46117;DHT22;32591;48.102;11.772;2023-04-30T02:01:46;11.20;99.90
46117;DHT22;32591;48.102;11.772;2023-04-30T02:04:13;11.20;99.90
46117;DHT22;32591;48.102;11.772;2023-04-30T02:06:40;11.20;99.90
46117;DHT22;32591;48.102;11.772;2023-04-30T02:09:07;11.20;99.90
46117;DHT22;32591;48.102;11.772;2023-04-30T02:11:35;11.10;99.90
46117;DHT22;32591;48.102;11.772;2023-04-30T02:14:02;11.10;99.90
46117;DHT22;32591;48.102;11.772;2023-04-30T02:16:30;11.10;99.90
46117;DHT22;32591;48.102;11.772;2023-04-30T02:18:57;11.00;99.90
46117;DHT22;32591;48.102;11.772;2023-04-30T02:21:24;11.00;99.90
46117;DHT22;32591;48.102;11.772;2023-04-30T02:23:51;11.00;99.90
46117;DHT22;32591;48.102;11.772;2023-04-30T02:26:18;11.00;99.90
46117;DHT22;32591;48.102;11.772;2023-04-30T02:28:45;11.00;99.90
46117;DHT22;32591;48.102;11.772;2023-04-30T02:31:12;11.00;99.90
46117;DHT22;32591;48.102;11.772;2023-04-30T02:33:41;10.90;99.90
46117;DHT22;32591;48.102;11.772;2023-04-30T02:36:08;11.00;99.90
46117;DHT22;32591;48.102;11.772;2023-04-30T02:38:35;10.90;99.90
46117;DHT22;32591;48.102;11.772;2023-04-30T02:41:01;10.90;99.90
46117;DHT22;32591;48.102;11.772;2023-04-30T02:43:28;10.90;99.90
46117;DHT22;32591;48.102;11.772;2023-04-30T02:45:55;10.80;99.90
46117;DHT22;32591;48.102;11.772;2023-04-30T02:48:22;10.80;99.90
46117;DHT22;32591;48.102;11.772;2023-04-30T02:50:51;10.80;99.90
46117;DHT22;32591;48.102;11.772;2023-04-30T02:53:18;10.80;99.90
46117;DHT22;32591;48.102;11.772;2023-04-30T02:55:45;10.80;99.90
46117;DHT22;32591;48.102;11.772;2023-04-30T02:58:11;10.70;99.90
46117;DHT22;32591;48.102;11.772;2023-04-30T03:00:39;10.80;99.90
46117;DHT22;32591;48.102;11.772;2023-04-30T03:03:06;10.70;99.90
46117;DHT22;32591;48.102;11.772;2023-04-30T03:05:33;10.70;99.90
46117;DHT22;32591;48.102;11.772;2023-04-30T03:08:01;10.70;99.90
46117;DHT22;32591;48.102;11.772;2023-04-30T03:10:28;10.60;99.90
46117;DHT22;32591;48.102;11.772;2023-04-30T03:12:55;10.60;99.90
46117;DHT22;32591;48.102;11.772;2023-04-30T03:15:22;10.50;99.90
46117;DHT22;32591;48.102;11.772;2023-04-30T03:17:49;10.50;99.90
46117;DHT22;32591;48.102;11.772;2023-04-30T03:20:16;10.50;99.90
46117;DHT22;32591;48.102;11.772;2023-04-30T03:22:43;10.50;99.90
46117;DHT22;32591;48.102;11.772;2023-04-30T03:25:11;10.50;99.90
46117;DHT22;32591;48.102;11.772;2023-04-30T03:27:38;10.40;99.90
46117;DHT22;32591;48.102;11.772;2023-04-30T03:30:06;10.30;99.90
46117;DHT22;32591;48.102;11.772;2023-04-30T03:32:34;10.40;99.90
46117;DHT22;32591;48.102;11.772;2023-04-30T03:35:01;10.40;99.90
46117;DHT22;32591;48.102;11.772;2023-04-30T03:37:28;10.40;99.90
46117;DHT22;32591;48.102;11.772;2023-04-30T03:39:55;10.40;99.90
46117;DHT22;32591;48.102;11.772;2023-04-30T03:42:23;10.30;99.90
46117;DHT22;32591;48.102;11.772;2023-04-30T03:44:50;10.20;99.90
46117;DHT22;32591;48.102;11.772;2023-04-30T03:47:17;10.20;99.90
46117;DHT22;32591;48.102;11.772;2023-04-30T03:49:44;10.20;99.90
46117;DHT22;32591;48.102;11.772;2023-04-30T03:52:11;10.30;99.90
46117;DHT22;32591;48.102;11.772;2023-04-30T03:54:37;10.30;99.90
46117;DHT22;32591;48.102;11.772;2023-04-30T03:57:04;10.30;99.90
46117;DHT22;32591;48.102;11.772;2023-04-30T03:59:33;10.20;99.90
46117;DHT22;32591;48.102;11.772;2023-04-30T04:02:00;10.20;99.90
46117;DHT22;32591;48.102;11.772;2023-04-30T04:04:27;10.20;99.90
46117;DHT22;32591;48.102;11.772;2023-04-30T04:06:54;10.20;99.90
46117;DHT22;32591;48.102;11.772;2023-04-30T04:09:21;10.30;99.90
46117;DHT22;32591;48.102;11.772;2023-04-30T04:11:48;10.20;99.90
46117;DHT22;32591;48.102;11.772;2023-04-30T04:14:15;10.20;99.90
46117;DHT22;32591;48.102;11.772;2023-04-30T04:16:44;10.20;99.90
46117;DHT22;32591;48.102;11.772;2023-04-30T04:19:11;10.20;99.90
46117;DHT22;32591;48.102;11.772;2023-04-30T04:21:38;10.20;99.90
46117;DHT22;32591;48.102;11.772;2023-04-30T04:24:05;10.30;99.90
46117;DHT22;32591;48.102;11.772;2023-04-30T04:26:33;10.30;99.90
46117;DHT22;32591;48.102;11.772;2023-04-30T04:29:00;10.40;99.90
46117;DHT22;32591;48.102;11.772;2023-04-30T04:31:27;10.30;99.90
46117;DHT22;32591;48.102;11.772;2023-04-30T04:34:02;10.40;99.90
46117;DHT22;32591;48.102;11.772;2023-04-30T04:36:30;10.50;99.90
46117;DHT22;32591;48.102;11.772;2023-04-30T04:38:58;10.60;99.90
46117;DHT22;32591;48.102;11.772;2023-04-30T04:41:26;10.60;99.90
46117;DHT22;32591;48.102;11.772;2023-04-30T04:43:54;10.70;99.90
46117;DHT22;32591;48.102;11.772;2023-04-30T04:46:21;10.80;99.90
46117;DHT22;32591;48.102;11.772;2023-04-30T04:48:50;10.90;99.90
46117;DHT22;32591;48.102;11.772;2023-04-30T04:51:19;10.90;99.90
46117;DHT22;32591;48.102;11.772;2023-04-30T04:53:45;10.90;99.90
46117;DHT22;32591;48.102;11.772;2023-04-30T04:56:13;10.90;99.90
46117;DHT22;32591;48.102;11.772;2023-04-30T04:58:40;10.90;99.90
46117;DHT22;32591;48.102;11.772;2023-04-30T05:01:08;10.80;99.90
46117;DHT22;32591;48.102;11.772;2023-04-30T05:03:35;10.70;99.90
46117;DHT22;32591;48.102;11.772;2023-04-30T05:06:02;10.70;99.90
46117;DHT22;32591;48.102;11.772;2023-04-30T05:08:31;10.70;99.90
46117;DHT22;32591;48.102;11.772;2023-04-30T05:10:58;10.70;99.90
46117;DHT22;32591;48.102;11.772;2023-04-30T05:13:25;10.70;99.90
46117;DHT22;32591;48.102;11.772;2023-04-30T05:15:52;10.70;99.90
46117;DHT22;32591;48.102;11.772;2023-04-30T05:18:20;10.70;99.90
46117;DHT22;32591;48.102;11.772;2023-04-30T05:20:47;10.70;99.90
46117;DHT22;32591;48.102;11.772;2023-04-30T05:23:15;10.70;99.90
46117;DHT22;32591;48.102;11.772;2023-04-30T05:25:43;10.70;99.90
46117;DHT22;32591;48.102;11.772;2023-04-30T05:28:10;10.70;99.90
46117;DHT22;32591;48.102;11.772;2023-04-30T05:30:37;10.80;99.90
46117;DHT22;32591;48.102;11.772;2023-04-30T05:33:04;10.80;99.90
46117;DHT22;32591;48.102;11.772;2023-04-30T05:35:31;10.70;99.90
46117;DHT22;32591;48.102;11.772;2023-04-30T05:38:00;10.80;99.90
46117;DHT22;32591;48.102;11.772;2023-04-30T05:40:28;10.80;99.90
46117;DHT22;32591;48.102;11.772;2023-04-30T05:42:57;10.70;99.90
46117;DHT22;32591;48.102;11.772;2023-04-30T05:45:24;10.70;99.90
46117;DHT22;32591;48.102;11.772;2023-04-30T05:47:51;10.70;99.90
46117;DHT22;32591;48.102;11.772;2023-04-30T05:50:18;10.60;99.90
46117;DHT22;32591;48.102;11.772;2023-04-30T05:52:45;10.70;99.90
46117;DHT22;32591;48.102;11.772;2023-04-30T05:55:12;10.80;99.90
46117;DHT22;32591;48.102;11.772;2023-04-30T05:57:39;11.00;99.90
46117;DHT22;32591;48.102;11.772;2023-04-30T06:00:09;11.20;99.90
46117;DHT22;32591;48.102;11.772;2023-04-30T06:02:37;11.30;99.90
46117;DHT22;32591;48.102;11.772;2023-04-30T06:05:05;11.30;99.90
46117;DHT22;32591;48.102;11.772;2023-04-30T06:07:33;11.40;99.90
46117;DHT22;32591;48.102;11.772;2023-04-30T06:10:00;11.40;99.90
46117;DHT22;32591;48.102;11.772;2023-04-30T06:12:27;11.50;99.90
46117;DHT22;32591;48.102;11.772;2023-04-30T06:14:54;11.50;99.90
46117;DHT22;32591;48.102;11.772;2023-04-30T06:17:23;11.50;99.90
46117;DHT22;32591;48.102;11.772;2023-04-30T06:19:50;11.40;99.90
46117;DHT22;32591;48.102;11.772;2023-04-30T06:22:17;11.40;99.90
46117;DHT22;32591;48.102;11.772;2023-04-30T06:24:44;11.40;99.90
46117;DHT22;32591;48.102;11.772;2023-04-30T06:27:11;11.40;99.90
46117;DHT22;32591;48.102;11.772;2023-04-30T06:29:38;11.40;99.90
46117;DHT22;32591;48.102;11.772;2023-04-30T06:32:05;11.80;99.90
46117;DHT22;32591;48.102;11.772;2023-04-30T06:34:34;11.90;99.90
46117;DHT22;32591;48.102;11.772;2023-04-30T06:37:02;12.00;99.90
46117;DHT22;32591;48.102;11.772;2023-04-30T06:39:28;12.00;99.90
46117;DHT22;32591;48.102;11.772;2023-04-30T06:41:55;12.10;99.90
46117;DHT22;32591;48.102;11.772;2023-04-30T06:44:22;12.30;99.90
46117;DHT22;32591;48.102;11.772;2023-04-30T06:46:49;12.20;99.90
46117;DHT22;32591;48.102;11.772;2023-04-30T06:49:16;12.20;99.90
46117;DHT22;32591;48.102;11.772;2023-04-30T06:51:44;12.30;99.90
46117;DHT22;32591;48.102;11.772;2023-04-30T06:54:11;12.30;99.90
46117;DHT22;32591;48.102;11.772;2023-04-30T06:56:38;12.40;99.90
46117;DHT22;32591;48.102;11.772;2023-04-30T06:59:06;12.40;99.90
46117;DHT22;32591;48.102;11.772;2023-04-30T07:01:33;12.40;99.90
46117;DHT22;32591;48.102;11.772;2023-04-30T07:04:00;12.50;99.90
46117;DHT22;32591;48.102;11.772;2023-04-30T07:06:27;12.60;99.90
46117;DHT22;32591;48.102;11.772;2023-04-30T07:08:56;12.80;99.90
46117;DHT22;32591;48.102;11.772;2023-04-30T07:11:23;13.00;99.90
46117;DHT22;32591;48.102;11.772;2023-04-30T07:13:50;13.00;99.90
46117;DHT22;32591;48.102;11.772;2023-04-30T07:16:18;13.00;99.90
46117;DHT22;32591;48.102;11.772;2023-04-30T07:18:45;13.00;99.90
46117;DHT22;32591;48.102;11.772;2023-04-30T07:21:13;13.10;99.90
46117;DHT22;32591;48.102;11.772;2023-04-30T07:23:40;13.20;99.90
46117;DHT22;32591;48.102;11.772;2023-04-30T07:26:09;13.20;99.90
46117;DHT22;32591;48.102;11.772;2023-04-30T07:28:36;13.20;99.90
46117;DHT22;32591;48.102;11.772;2023-04-30T07:31:03;13.20;99.90
46117;DHT22;32591;48.102;11.772;2023-04-30T07:33:32;13.30;99.90
46117;DHT22;32591;48.102;11.772;2023-04-30T07:35:59;13.30;99.90
46117;DHT22;32591;48.102;11.772;2023-04-30T07:38:26;13.20;99.90
46117;DHT22;32591;48.102;11.772;2023-04-30T07:40:53;13.20;99.90
46117;DHT22;32591;48.102;11.772;2023-04-30T07:43:22;13.30;99.90
46117;DHT22;32591;48.102;11.772;2023-04-30T07:45:49;13.30;99.90
46117;DHT22;32591;48.102;11.772;2023-04-30T07:48:17;13.30;99.90
46117;DHT22;32591;48.102;11.772;2023-04-30T07:50:46;13.30;99.90
46117;DHT22;32591;48.102;11.772;2023-04-30T07:53:13;13.30;99.90
46117;DHT22;32591;48.102;11.772;2023-04-30T07:55:41;13.30;99.90
46117;DHT22;32591;48.102;11.772;2023-04-30T07:58:08;13.30;99.90
46117;DHT22;32591;48.102;11.772;2023-04-30T08:00:36;13.30;99.90
46117;DHT22;32591;48.102;11.772;2023-04-30T08:03:03;13.40;99.90
46117;DHT22;32591;48.102;11.772;2023-04-30T08:05:30;13.50;99.90
46117;DHT22;32591;48.102;11.772;2023-04-30T08:07:57;13.70;99.90
46117;DHT22;32591;48.102;11.772;2023-04-30T08:10:24;13.80;99.90
46117;DHT22;32591;48.102;11.772;2023-04-30T08:12:51;13.80;99.90
46117;DHT22;32591;48.102;11.772;2023-04-30T08:15:18;13.80;99.90
46117;DHT22;32591;48.102;11.772;2023-04-30T08:17:48;13.80;99.90
46117;DHT22;32591;48.102;11.772;2023-04-30T08:20:15;13.80;99.90
46117;DHT22;32591;48.102;11.772;2023-04-30T08:22:42;13.90;99.90
46117;DHT22;32591;48.102;11.772;2023-04-30T08:25:10;13.90;99.90
46117;DHT22;32591;48.102;11.772;2023-04-30T08:27:38;13.90;99.90
46117;DHT22;32591;48.102;11.772;2023-04-30T08:30:06;13.80;99.90
46117;DHT22;32591;48.102;11.772;2023-04-30T08:32:33;13.90;99.90
46117;DHT22;32591;48.102;11.772;2023-04-30T08:35:03;14.00;99.90
46117;DHT22;32591;48.102;11.772;2023-04-30T08:37:30;14.10;99.90
46117;DHT22;32591;48.102;11.772;2023-04-30T08:39:57;14.00;99.90
46117;DHT22;32591;48.102;11.772;2023-04-30T08:42:28;14.10;99.90
46117;DHT22;32591;48.102;11.772;2023-04-30T08:44:58;14.00;99.90
46117;DHT22;32591;48.102;11.772;2023-04-30T08:47:26;14.00;99.90
46117;DHT22;32591;48.102;11.772;2023-04-30T08:49:53;13.80;99.90
46117;DHT22;32591;48.102;11.772;2023-04-30T08:52:22;14.00;99.90
46117;DHT22;32591;48.102;11.772;2023-04-30T08:54:51;14.00;99.90
46117;DHT22;32591;48.102;11.772;2023-04-30T08:57:20;14.00;99.90
46117;DHT22;32591;48.102;11.772;2023-04-30T08:59:47;14.10;99.90
46117;DHT22;32591;48.102;11.772;2023-04-30T09:02:14;14.20;99.90
46117;DHT22;32591;48.102;11.772;2023-04-30T09:04:41;14.40;99.90
46117;DHT22;32591;48.102;11.772;2023-04-30T09:07:08;14.50;99.90
46117;DHT22;32591;48.102;11.772;2023-04-30T09:09:38;14.90;99.90
46117;DHT22;32591;48.102;11.772;2023-04-30T09:12:13;14.90;99.90
46117;DHT22;32591;48.102;11.772;2023-04-30T09:14:56;14.80;99.90
46117;DHT22;32591;48.102;11.772;2023-04-30T09:17:25;15.00;99.90
46117;DHT22;32591;48.102;11.772;2023-04-30T09:19:52;15.30;99.90
46117;DHT22;32591;48.102;11.772;2023-04-30T09:22:20;15.60;99.90
46117;DHT22;32591;48.102;11.772;2023-04-30T09:24:50;15.70;99.90
46117;DHT22;32591;48.102;11.772;2023-04-30T09:27:19;15.80;99.90
46117;DHT22;32591;48.102;11.772;2023-04-30T09:29:47;15.80;99.90
46117;DHT22;32591;48.102;11.772;2023-04-30T09:32:14;15.60;99.90
46117;DHT22;32591;48.102;11.772;2023-04-30T09:34:41;15.40;99.90
46117;DHT22;32591;48.102;11.772;2023-04-30T09:37:08;15.30;99.90
46117;DHT22;32591;48.102;11.772;2023-04-30T09:39:46;15.30;99.90
46117;DHT22;32591;48.102;11.772;2023-04-30T09:42:16;15.10;99.90
46117;DHT22;32591;48.102;11.772;2023-04-30T09:44:44;15.00;99.90
46117;DHT22;32591;48.102;11.772;2023-04-30T09:47:13;14.90;99.90
46117;DHT22;32591;48.102;11.772;2023-04-30T09:49:42;14.80;99.90
46117;DHT22;32591;48.102;11.772;2023-04-30T09:52:10;14.80;99.90
46117;DHT22;32591;48.102;11.772;2023-04-30T09:54:38;14.80;99.90
46117;DHT22;32591;48.102;11.772;2023-04-30T09:57:09;14.80;99.90
46117;DHT22;32591;48.102;11.772;2023-04-30T09:59:42;14.90;99.90
46117;DHT22;32591;48.102;11.772;2023-04-30T10:02:12;15.00;99.90
46117;DHT22;32591;48.102;11.772;2023-04-30T10:04:42;15.10;99.90
46117;DHT22;32591;48.102;11.772;2023-04-30T10:07:14;15.10;99.90
46117;DHT22;32591;48.102;11.772;2023-04-30T10:09:48;15.10;99.90
46117;DHT22;32591;48.102;11.772;2023-04-30T10:12:23;14.90;99.90
46117;DHT22;32591;48.102;11.772;2023-04-30T10:15:10;14.70;99.90
46117;DHT22;32591;48.102;11.772;2023-04-30T10:17:44;14.70;99.90
46117;DHT22;32591;48.102;11.772;2023-04-30T10:20:14;14.80;99.90
46117;DHT22;32591;48.102;11.772;2023-04-30T10:22:43;14.80;99.90
46117;DHT22;32591;48.102;11.772;2023-04-30T10:25:11;14.90;99.90
46117;DHT22;32591;48.102;11.772;2023-04-30T10:27:39;15.00;99.90
46117;DHT22;32591;48.102;11.772;2023-04-30T10:30:09;15.00;99.90
46117;DHT22;32591;48.102;11.772;2023-04-30T10:32:43;15.10;99.90
46117;DHT22;32591;48.102;11.772;2023-04-30T10:35:18;15.20;99.90
46117;DHT22;32591;48.102;11.772;2023-04-30T10:37:52;15.30;99.90
46117;DHT22;32591;48.102;11.772;2023-04-30T10:40:25;15.40;99.90
46117;DHT22;32591;48.102;11.772;2023-04-30T10:42:53;15.40;99.90
46117;DHT22;32591;48.102;11.772;2023-04-30T10:45:33;15.50;99.90
46117;DHT22;32591;48.102;11.772;2023-04-30T10:48:01;15.60;99.90
46117;DHT22;32591;48.102;11.772;2023-04-30T10:50:28;15.70;99.90
46117;DHT22;32591;48.102;11.772;2023-04-30T10:53:01;15.70;99.90
46117;DHT22;32591;48.102;11.772;2023-04-30T10:55:29;15.80;99.90
46117;DHT22;32591;48.102;11.772;2023-04-30T10:57:57;15.90;99.90
46117;DHT22;32591;48.102;11.772;2023-04-30T11:00:27;16.00;99.90
46117;DHT22;32591;48.102;11.772;2023-04-30T11:02:57;16.10;99.90
46117;DHT22;32591;48.102;11.772;2023-04-30T11:05:34;16.20;99.90
46117;DHT22;32591;48.102;11.772;2023-04-30T11:08:02;16.50;99.90
46117;DHT22;32591;48.102;11.772;2023-04-30T11:10:32;16.70;99.90
46117;DHT22;32591;48.102;11.772;2023-04-30T11:13:04;16.90;99.90
46117;DHT22;32591;48.102;11.772;2023-04-30T11:15:38;17.00;99.00
46117;DHT22;32591;48.102;11.772;2023-04-30T11:18:06;16.90;99.10
46117;DHT22;32591;48.102;11.772;2023-04-30T11:20:38;17.00;99.60
46117;DHT22;32591;48.102;11.772;2023-04-30T11:23:10;17.00;99.30
46117;DHT22;32591;48.102;11.772;2023-04-30T11:25:41;17.00;99.40
46117;DHT22;32591;48.102;11.772;2023-04-30T11:28:13;17.00;99.20
46117;DHT22;32591;48.102;11.772;2023-04-30T11:30:50;16.90;99.90
46117;DHT22;32591;48.102;11.772;2023-04-30T11:33:19;16.90;99.90
46117;DHT22;32591;48.102;11.772;2023-04-30T11:35:47;17.00;99.60
46117;DHT22;32591;48.102;11.772;2023-04-30T11:38:18;16.90;99.40
46117;DHT22;32591;48.102;11.772;2023-04-30T11:40:47;16.70;99.20
46117;DHT22;32591;48.102;11.772;2023-04-30T11:43:24;16.50;99.40
46117;DHT22;32591;48.102;11.772;2023-04-30T11:46:01;16.20;99.30
46117;DHT22;32591;48.102;11.772;2023-04-30T11:48:31;16.20;99.90
46117;DHT22;32591;48.102;11.772;2023-04-30T11:51:01;16.20;99.90
46117;DHT22;32591;48.102;11.772;2023-04-30T11:53:29;16.30;99.90
46117;DHT22;32591;48.102;11.772;2023-04-30T11:55:56;16.40;99.40
46117;DHT22;32591;48.102;11.772;2023-04-30T11:58:31;16.50;99.40
46117;DHT22;32591;48.102;11.772;2023-04-30T12:01:00;16.60;99.30
46117;DHT22;32591;48.102;11.772;2023-04-30T12:03:28;16.50;98.80
46117;DHT22;32591;48.102;11.772;2023-04-30T12:05:55;16.50;99.40
46117;DHT22;32591;48.102;11.772;2023-04-30T12:08:22;16.20;98.90
46117;DHT22;32591;48.102;11.772;2023-04-30T12:10:49;16.20;99.50
46117;DHT22;32591;48.102;11.772;2023-04-30T12:13:16;16.20;99.90
46117;DHT22;32591;48.102;11.772;2023-04-30T12:15:56;16.20;99.30
46117;DHT22;32591;48.102;11.772;2023-04-30T12:18:26;16.20;99.70
46117;DHT22;32591;48.102;11.772;2023-04-30T12:20:52;16.20;99.90
46117;DHT22;32591;48.102;11.772;2023-04-30T12:23:20;16.20;99.90
46117;DHT22;32591;48.102;11.772;2023-04-30T12:25:47;16.20;99.90
46117;DHT22;32591;48.102;11.772;2023-04-30T12:28:14;16.10;99.40
46117;DHT22;32591;48.102;11.772;2023-04-30T12:30:42;16.00;99.80
46117;DHT22;32591;48.102;11.772;2023-04-30T12:33:09;16.10;99.90
46117;DHT22;32591;48.102;11.772;2023-04-30T12:35:41;16.20;99.50
46117;DHT22;32591;48.102;11.772;2023-04-30T12:38:09;16.20;99.20
46117;DHT22;32591;48.102;11.772;2023-04-30T12:40:46;16.20;99.10
46117;DHT22;32591;48.102;11.772;2023-04-30T12:43:15;16.20;99.70
46117;DHT22;32591;48.102;11.772;2023-04-30T12:45:44;16.20;98.80
46117;DHT22;32591;48.102;11.772;2023-04-30T12:48:14;16.20;98.40
46117;DHT22;32591;48.102;11.772;2023-04-30T12:50:46;16.20;98.80
46117;DHT22;32591;48.102;11.772;2023-04-30T12:53:14;16.20;99.30
46117;DHT22;32591;48.102;11.772;2023-04-30T12:55:41;16.40;99.40
46117;DHT22;32591;48.102;11.772;2023-04-30T12:58:10;16.60;98.30
46117;DHT22;32591;48.102;11.772;2023-04-30T13:00:43;17.00;98.10
46117;DHT22;32591;48.102;11.772;2023-04-30T13:03:15;17.40;97.70
46117;DHT22;32591;48.102;11.772;2023-04-30T13:05:47;17.70;96.30
46117;DHT22;32591;48.102;11.772;2023-04-30T13:08:15;17.90;95.60
46117;DHT22;32591;48.102;11.772;2023-04-30T13:10:43;18.00;95.20
46117;DHT22;32591;48.102;11.772;2023-04-30T13:13:11;18.00;93.90
46117;DHT22;32591;48.102;11.772;2023-04-30T13:15:38;18.10;93.90
46117;DHT22;32591;48.102;11.772;2023-04-30T13:18:06;18.10;93.90
46117;DHT22;32591;48.102;11.772;2023-04-30T13:20:34;18.00;94.00
46117;DHT22;32591;48.102;11.772;2023-04-30T13:23:03;17.70;94.20
46117;DHT22;32591;48.102;11.772;2023-04-30T13:25:30;17.50;94.00
46117;DHT22;32591;48.102;11.772;2023-04-30T13:27:58;17.30;93.60
46117;DHT22;32591;48.102;11.772;2023-04-30T13:30:25;17.50;93.80
46117;DHT22;32591;48.102;11.772;2023-04-30T13:32:52;17.80;92.60
46117;DHT22;32591;48.102;11.772;2023-04-30T13:35:19;18.20;94.00
46117;DHT22;32591;48.102;11.772;2023-04-30T13:37:47;18.50;92.70
46117;DHT22;32591;48.102;11.772;2023-04-30T13:40:18;18.70;92.70
46117;DHT22;32591;48.102;11.772;2023-04-30T13:42:47;18.70;92.10
46117;DHT22;32591;48.102;11.772;2023-04-30T13:45:14;18.70;90.70
46117;DHT22;32591;48.102;11.772;2023-04-30T13:47:41;18.70;90.30
46117;DHT22;32591;48.102;11.772;2023-04-30T13:50:09;19.00;90.50
46117;DHT22;32591;48.102;11.772;2023-04-30T13:52:36;19.20;90.10
46117;DHT22;32591;48.102;11.772;2023-04-30T13:55:04;19.30;87.90
46117;DHT22;32591;48.102;11.772;2023-04-30T13:57:33;19.40;90.00
46117;DHT22;32591;48.102;11.772;2023-04-30T14:00:00;19.40;86.00
46117;DHT22;32591;48.102;11.772;2023-04-30T14:02:27;19.30;88.10
46117;DHT22;32591;48.102;11.772;2023-04-30T14:04:54;19.20;87.30
46117;DHT22;32591;48.102;11.772;2023-04-30T14:07:23;19.00;87.80
46117;DHT22;32591;48.102;11.772;2023-04-30T14:09:50;18.70;86.80
46117;DHT22;32591;48.102;11.772;2023-04-30T14:12:18;18.40;86.60
46117;DHT22;32591;48.102;11.772;2023-04-30T14:14:47;18.30;86.80
46117;DHT22;32591;48.102;11.772;2023-04-30T14:17:14;18.30;88.70
46117;DHT22;32591;48.102;11.772;2023-04-30T14:19:42;18.20;87.30
46117;DHT22;32591;48.102;11.772;2023-04-30T14:22:09;18.20;88.40
46117;DHT22;32591;48.102;11.772;2023-04-30T14:24:36;18.10;87.80
46117;DHT22;32591;48.102;11.772;2023-04-30T14:27:03;18.00;87.40
46117;DHT22;32591;48.102;11.772;2023-04-30T14:29:30;18.00;89.40
46117;DHT22;32591;48.102;11.772;2023-04-30T14:31:59;18.00;90.20
46117;DHT22;32591;48.102;11.772;2023-04-30T14:34:26;18.20;90.10
46117;DHT22;32591;48.102;11.772;2023-04-30T14:36:53;18.30;89.80
46117;DHT22;32591;48.102;11.772;2023-04-30T14:39:23;18.40;89.50
46117;DHT22;32591;48.102;11.772;2023-04-30T14:41:51;18.20;90.80
46117;DHT22;32591;48.102;11.772;2023-04-30T14:44:18;18.30;90.70
46117;DHT22;32591;48.102;11.772;2023-04-30T14:46:46;18.20;89.80
46117;DHT22;32591;48.102;11.772;2023-04-30T14:49:14;18.20;90.40
46117;DHT22;32591;48.102;11.772;2023-04-30T14:51:41;18.20;89.40
46117;DHT22;32591;48.102;11.772;2023-04-30T14:54:08;18.00;90.20
46117;DHT22;32591;48.102;11.772;2023-04-30T14:56:36;18.00;89.00
46117;DHT22;32591;48.102;11.772;2023-04-30T14:59:03;17.90;90.20
46117;DHT22;32591;48.102;11.772;2023-04-30T15:01:30;17.90;90.40
46117;DHT22;32591;48.102;11.772;2023-04-30T15:03:57;18.00;91.00
46117;DHT22;32591;48.102;11.772;2023-04-30T15:06:26;17.90;90.90
46117;DHT22;32591;48.102;11.772;2023-04-30T15:08:53;17.80;90.10
46117;DHT22;32591;48.102;11.772;2023-04-30T15:11:20;17.80;89.50
46117;DHT22;32591;48.102;11.772;2023-04-30T15:13:48;17.60;90.30
46117;DHT22;32591;48.102;11.772;2023-04-30T15:16:15;17.60;90.30
46117;DHT22;32591;48.102;11.772;2023-04-30T15:18:42;17.70;91.30
46117;DHT22;32591;48.102;11.772;2023-04-30T15:21:09;17.80;90.30
46117;DHT22;32591;48.102;11.772;2023-04-30T15:23:38;17.90;90.90